aviador You're here:

YCBP Decoded Metar

in
Report Time2017-08-18 04:00:00
UTC Time2017-08-18 04:50:01
Flight Rules vfr VFR
Wind160° at 09 kt
W.Decomp.*RWY 14: 8.5 kt HW 3.1 kt RCW
RWY 22: 4.5 kt HW 7.8 kt LCW
W.Rank160° ranks 13
Current wind is below 160° avg. (10.0)
Visibility9999 m
Phenomena:N/A
Clouds:N/A
Expected CloudBase > 7,600 ft AGL from Temp-Dew spread
CeilingNone
Temp18°C
Dew Point-1°C (28% RH)
AAT12.7°C
QNH1025 hPa
Raw Report
METAR YCBP 180400Z AUTO 16009KT 9999 // NCD 18/M01 Q1025=

Extra information for YCBP:More info

Social comments